Columbia, Connecticut
Current Conditions -  °F | °C
As of 8:52 AM on Thursday 23 Oct 2014 (Local Time) from KIJD Reporting Station
Light Rain Light Rain  
Wind Chill: 52°   Ceiling: 8000
Heat Index: 52°   Visibility: 10mi
Dew Point: 46°   Wind: 17mph
Humidity: 80%   Direction: 10°N
Pressure: 29.63"   Gusts: 28mph
Location:  41.7°N, 72.3°W
Report Text: KIJD 231252Z AUTO 01015G24KT 10SM -RA FEW019 BKN080 OVC095 11/08 A2963 RMK AO2 PK WND 01030/1210 RAB1158 SLP033 P0001 T01110078
Loading
Personal Weather Stations






























Interactive Weather Map New forecast layout! Learn more

10-Day Weather Forecast

Advertisements
Track Severe Weather on mobile